createdAt,value
2018-11-02T00:02:18.834Z,99150.83
2018-11-02T00:04:47.914Z,99162.41
2018-11-02T00:07:17.303Z,99166.92
2018-11-02T00:09:46.321Z,99164.22
2018-11-02T00:12:15.353Z,99161.03
2018-11-02T00:14:44.530Z,99160.81
2018-11-02T00:17:13.882Z,99158.44
2018-11-02T00:19:42.582Z,99154.78
2018-11-02T00:22:11.671Z,99157.59
2018-11-02T00:24:40.854Z,99156.97
2018-11-02T00:27:09.658Z,99157.41
2018-11-02T00:29:38.557Z,99158.35
2018-11-02T00:32:07.807Z,99159.38
2018-11-02T00:34:37.002Z,99169.12
2018-11-02T00:37:06.326Z,99160.09
2018-11-02T00:39:35.442Z,99159.37
2018-11-02T00:42:04.685Z,99158.54
2018-11-02T00:44:33.961Z,99159.81
2018-11-02T00:47:03.087Z,99156.09
2018-11-02T00:49:32.073Z,99158.43
2018-11-02T00:52:01.357Z,99150.48
2018-11-02T00:54:30.418Z,99153.84
2018-11-02T00:56:59.431Z,99155.55
2018-11-02T00:59:28.250Z,99150.36
2018-11-02T01:01:57.125Z,99149.23
2018-11-02T01:04:26.373Z,99157.34
2018-11-02T01:06:55.438Z,99160.83
2018-11-02T01:09:24.740Z,99162.08
2018-11-02T01:11:53.918Z,99164.72
2018-11-02T01:14:22.905Z,99162.20
2018-11-02T01:16:52.255Z,99163.96
2018-11-02T01:19:25.498Z,99158.33
2018-11-02T01:21:54.507Z,99163.66
2018-11-02T01:24:23.604Z,99164.55
2018-11-02T01:26:52.486Z,99164.55
2018-11-02T01:29:21.499Z,99167.67
2018-11-02T01:31:50.818Z,99161.52
2018-11-02T01:34:19.914Z,99162.64
2018-11-02T01:36:49.086Z,99162.15
2018-11-02T01:39:18.351Z,99159.66
2018-11-02T01:41:47.655Z,99159.06
2018-11-02T01:44:16.665Z,99159.38
2018-11-02T01:46:45.758Z,99160.45
2018-11-02T01:49:14.513Z,99159.12
2018-11-02T01:51:43.909Z,99166.86
2018-11-02T01:54:12.958Z,99162.91
2018-11-02T01:56:42.018Z,99164.22
2018-11-02T01:59:11.099Z,99165.62
2018-11-02T02:01:40.310Z,99168.86
2018-11-02T02:04:09.467Z,99168.13
2018-11-02T02:06:38.443Z,99164.89
2018-11-02T02:09:09.881Z,99167.05
2018-11-02T02:11:39.155Z,99168.27
2018-11-02T02:14:08.699Z,99163.44
2018-11-02T02:16:37.855Z,99166.97
2018-11-02T02:19:07.250Z,99167.52
2018-11-02T02:21:36.209Z,99162.48
2018-11-02T02:24:05.386Z,99165.78
2018-11-02T02:26:34.487Z,99164.44
2018-11-02T02:29:03.620Z,99169.40
2018-11-02T02:31:32.779Z,99163.23
2018-11-02T02:34:01.635Z,99157.74
2018-11-02T02:36:30.758Z,99151.20
2018-11-02T02:38:59.922Z,99154.61
2018-11-02T02:41:29.215Z,99156.19
2018-11-02T02:43:58.415Z,99148.59
2018-11-02T02:46:27.710Z,99146.94
2018-11-02T02:48:57.022Z,99162.11
2018-11-02T02:51:26.311Z,99155.95
2018-11-02T02:53:55.502Z,99156.98
2018-11-02T02:56:24.422Z,99153.98
2018-11-02T02:58:53.619Z,99152.81
2018-11-02T03:01:23.007Z,99156.25
2018-11-02T03:03:52.143Z,99159.27
2018-11-02T03:06:21.292Z,99162.89
2018-11-02T03:08:50.586Z,99161.58
2018-11-02T03:11:19.964Z,99174.97
2018-11-02T03:13:48.892Z,99177.08
2018-11-02T03:16:18.107Z,99168.42
2018-11-02T03:18:47.328Z,99165.53
2018-11-02T03:21:16.505Z,99164.94
2018-11-02T03:23:45.644Z,99157.36
2018-11-02T03:26:14.659Z,99158.43
2018-11-02T03:28:43.995Z,99159.62
2018-11-02T03:31:12.683Z,99158.95
2018-11-02T03:33:41.631Z,99163.50
2018-11-02T03:36:10.565Z,99159.14
2018-11-02T03:38:39.708Z,99157.49
2018-11-02T03:41:08.902Z,99165.29
2018-11-02T03:43:37.996Z,99159.73
2018-11-02T03:46:06.842Z,99164.82
2018-11-02T03:48:35.987Z,99163.97
2018-11-02T03:51:05.171Z,99162.30
2018-11-02T03:53:34.274Z,99168.36
2018-11-02T03:56:03.417Z,99166.28
2018-11-02T03:58:32.535Z,99166.39
2018-11-02T04:01:01.762Z,99161.78
2018-11-02T04:03:30.834Z,99157.78
2018-11-02T04:06:00.017Z,99157.39
2018-11-02T04:08:29.123Z,99161.95
2018-11-02T04:10:58.203Z,99158.70
2018-11-02T04:13:27.285Z,99160.09
2018-11-02T04:15:56.374Z,99156.63
2018-11-02T04:18:25.479Z,99159.77
2018-11-02T04:20:54.755Z,99157.44
2018-11-02T04:23:23.830Z,99161.28
2018-11-02T04:25:53.027Z,99161.77
2018-11-02T04:28:22.249Z,99156.64
2018-11-02T04:30:51.571Z,99162.18
2018-11-02T04:33:20.726Z,99161.30
2018-11-02T04:35:49.901Z,99163.99
2018-11-02T04:38:19.094Z,99165.09
2018-11-02T04:40:47.795Z,99167.42
2018-11-02T04:43:17.097Z,99169.06
2018-11-02T04:45:46.199Z,99169.56
2018-11-02T04:48:15.270Z,99166.11
2018-11-02T04:50:44.389Z,99166.21
2018-11-02T04:53:13.674Z,99161.64
2018-11-02T04:55:42.983Z,99166.80
2018-11-02T04:58:11.991Z,99165.53
2018-11-02T05:00:41.167Z,99167.58
2018-11-02T05:03:10.227Z,99172.94
2018-11-02T05:05:39.370Z,99174.79
2018-11-02T05:08:08.546Z,99173.05
2018-11-02T05:10:37.699Z,99171.33
2018-11-02T05:13:06.989Z,99170.05
2018-11-02T05:15:35.816Z,99169.06
2018-11-02T05:18:05.087Z,99173.88
2018-11-02T05:20:34.184Z,99173.48
2018-11-02T05:23:03.251Z,99174.57
2018-11-02T05:25:32.554Z,99175.29
2018-11-02T05:28:01.725Z,99178.33
2018-11-02T05:30:30.432Z,99182.02
2018-11-02T05:32:59.281Z,99179.66
2018-11-02T05:35:28.394Z,99183.13
2018-11-02T05:37:57.385Z,99188.52
2018-11-02T05:40:26.559Z,99190.77
2018-11-02T05:42:55.781Z,99190.45
2018-11-02T05:45:25.127Z,99198.61
2018-11-02T05:47:54.033Z,99205.09
2018-11-02T05:50:22.812Z,99201.34
2018-11-02T05:52:51.955Z,99207.20
2018-11-02T05:55:21.141Z,99209.90
2018-11-02T05:57:50.327Z,99216.33
2018-11-02T06:00:19.647Z,99212.68
2018-11-02T06:02:48.414Z,99214.34
2018-11-02T06:05:17.609Z,99209.85
2018-11-02T06:07:46.397Z,99207.97
2018-11-02T06:10:15.287Z,99209.34
2018-11-02T06:12:44.491Z,99209.74
2018-11-02T06:15:13.417Z,99218.88
2018-11-02T06:17:42.691Z,99221.80
2018-11-02T06:20:12.083Z,99209.84
2018-11-02T06:22:41.773Z,99211.14
2018-11-02T06:25:11.084Z,99209.33
2018-11-02T06:27:40.189Z,99211.98
2018-11-02T06:30:10.269Z,99215.13
2018-11-02T06:32:39.365Z,99219.47
2018-11-02T06:35:09.412Z,99218.80
2018-11-02T06:37:38.756Z,99217.09
2018-11-02T06:40:08.118Z,99221.30
2018-11-02T06:42:37.415Z,99220.23
2018-11-02T06:45:07.968Z,99232.20
2018-11-02T06:47:36.942Z,99227.67
2018-11-02T06:50:06.114Z,99226.35
2018-11-02T06:52:35.282Z,99234.41
2018-11-02T06:55:04.279Z,99233.64
2018-11-02T06:57:33.341Z,99237.63
2018-11-02T07:00:02.868Z,99235.73
2018-11-02T07:02:31.550Z,99238.83
2018-11-02T07:05:00.441Z,99237.95
2018-11-02T07:07:29.531Z,99238.77
2018-11-02T07:09:58.690Z,99239.98
2018-11-02T07:12:27.758Z,99238.27
2018-11-02T07:14:56.733Z,99239.42
2018-11-02T07:17:26.155Z,99237.89
2018-11-02T07:19:55.050Z,99239.98
2018-11-02T07:22:23.902Z,99230.60
2018-11-02T07:24:53.045Z,99232.30
2018-11-02T07:27:22.293Z,99243.30
2018-11-02T07:29:51.566Z,99237.34
2018-11-02T07:32:20.779Z,99236.02
2018-11-02T07:34:49.728Z,99234.98
2018-11-02T07:37:18.571Z,99236.31
2018-11-02T07:39:47.679Z,99228.08
2018-11-02T07:42:16.811Z,99228.53
2018-11-02T07:44:45.837Z,99230.07
2018-11-02T07:47:15.122Z,99230.59
2018-11-02T07:49:44.493Z,99235.44
2018-11-02T07:52:13.717Z,99229.52
2018-11-02T07:54:42.642Z,99235.20
2018-11-02T07:57:11.698Z,99235.04
2018-11-02T07:59:41.049Z,99244.25
2018-11-02T08:02:10.215Z,99238.56
2018-11-02T08:04:39.373Z,99235.36
2018-11-02T08:07:08.670Z,99229.39
2018-11-02T08:09:37.865Z,99236.02
2018-11-02T08:12:07.226Z,99239.53
2018-11-02T08:14:36.374Z,99235.30
2018-11-02T08:17:05.430Z,99228.70
2018-11-02T08:19:34.575Z,99230.09
2018-11-02T08:22:03.662Z,99227.77
2018-11-02T08:24:32.555Z,99229.91
2018-11-02T08:27:01.252Z,99231.06
2018-11-02T08:29:30.315Z,99231.58
2018-11-02T08:31:59.070Z,99228.02
2018-11-02T08:34:28.010Z,99215.97
2018-11-02T08:36:57.041Z,99213.12
2018-11-02T08:39:26.022Z,99215.30
2018-11-02T08:41:55.434Z,99215.91
2018-11-02T08:44:24.587Z,99212.47
2018-11-02T08:46:53.671Z,99211.41
2018-11-02T08:49:22.363Z,99208.57
2018-11-02T08:51:51.462Z,99206.47
2018-11-02T08:54:20.655Z,99205.69
2018-11-02T08:56:49.589Z,99208.04
2018-11-02T08:59:18.805Z,99212.28
2018-11-02T09:01:47.929Z,99210.53
2018-11-02T09:04:16.930Z,99210.95
2018-11-02T09:06:46.011Z,99210.36
2018-11-02T09:09:15.213Z,99208.55
2018-11-02T09:11:44.208Z,99199.39
2018-11-02T09:14:13.499Z,99196.03
2018-11-02T09:16:42.599Z,99196.97
2018-11-02T09:19:11.985Z,99193.83
2018-11-02T09:21:40.757Z,99197.47
2018-11-02T09:24:09.691Z,99189.84
2018-11-02T09:26:38.787Z,99191.13
2018-11-02T09:29:07.599Z,99188.77
2018-11-02T09:31:36.433Z,99184.42
2018-11-02T09:34:05.355Z,99188.05
2018-11-02T09:36:34.407Z,99186.05
2018-11-02T09:39:04.223Z,99177.31
2018-11-02T09:41:33.108Z,99174.80
2018-11-02T09:44:01.982Z,99172.53
2018-11-02T09:46:31.075Z,99172.34
2018-11-02T09:49:00.334Z,99170.52
2018-11-02T09:51:29.686Z,99167.03
2018-11-02T09:53:58.631Z,99167.25
2018-11-02T09:56:27.822Z,99163.47
2018-11-02T09:58:56.982Z,99156.67
2018-11-02T10:01:26.154Z,99152.63
2018-11-02T10:03:55.247Z,99152.91
2018-11-02T10:06:23.949Z,99154.70
2018-11-02T10:08:52.918Z,99158.97
2018-11-02T10:11:22.196Z,99154.05
2018-11-02T10:13:51.222Z,99147.30
2018-11-02T10:16:20.478Z,99144.94
2018-11-02T10:18:49.683Z,99137.79
2018-11-02T10:21:18.738Z,99136.30
2018-11-02T10:23:47.734Z,99138.11
2018-11-02T10:26:17.012Z,99132.28
2018-11-02T10:28:46.099Z,99127.20
2018-11-02T10:31:15.147Z,99124.46
2018-11-02T10:33:44.444Z,99124.34
2018-11-02T10:36:13.725Z,99118.25
2018-11-02T10:38:43.123Z,99115.54
2018-11-02T10:41:14.894Z,99116.86
2018-11-02T10:43:44.150Z,99116.11
2018-11-02T10:46:13.243Z,99107.28
2018-11-02T10:48:42.339Z,99099.17
2018-11-02T10:51:11.548Z,99099.72
2018-11-02T10:53:40.784Z,99095.08
2018-11-02T10:56:09.979Z,99093.69
2018-11-02T10:58:39.312Z,99096.05
2018-11-02T11:01:13.574Z,99096.71
2018-11-02T11:03:42.869Z,99091.09
2018-11-02T11:06:12.143Z,99090.30
2018-11-02T11:08:41.366Z,99089.27
2018-11-02T11:11:10.303Z,99088.02
2018-11-02T11:13:39.695Z,99085.19
2018-11-02T11:16:08.658Z,99087.04
2018-11-02T11:18:37.869Z,99080.94
2018-11-02T11:21:07.080Z,99077.62
2018-11-02T11:23:36.374Z,99072.95
2018-11-02T11:26:05.771Z,99075.27
2018-11-02T11:28:35.110Z,99074.75
2018-11-02T11:31:04.368Z,99067.31
2018-11-02T11:33:33.691Z,99068.47
2018-11-02T11:36:02.838Z,99057.65
2018-11-02T11:38:33.985Z,99060.97
2018-11-02T11:41:03.202Z,99061.17
2018-11-02T11:43:32.541Z,99058.66
2018-11-02T11:46:01.741Z,99056.25
2018-11-02T11:48:31.057Z,99046.44
2018-11-02T11:50:59.919Z,99048.78
2018-11-02T11:53:28.728Z,99048.57
2018-11-02T11:55:57.818Z,99042.91
2018-11-02T11:58:26.850Z,99044.38
2018-11-02T12:00:56.151Z,99040.98
2018-11-02T12:03:25.003Z,99038.55
2018-11-02T12:05:54.295Z,99036.00
2018-11-02T12:08:23.583Z,99039.27
2018-11-02T12:10:52.725Z,99040.25
2018-11-02T12:13:22.030Z,99044.44
2018-11-02T12:15:50.921Z,99045.11
2018-11-02T12:18:20.127Z,99037.53
2018-11-02T12:20:49.458Z,99040.52
2018-11-02T12:23:18.719Z,99040.31
2018-11-02T12:25:47.832Z,99034.34
2018-11-02T12:28:17.169Z,99034.28
2018-11-02T12:30:46.343Z,99034.34
2018-11-02T12:33:15.145Z,99034.93
2018-11-02T12:35:44.037Z,99028.97
2018-11-02T12:38:12.982Z,99024.12
2018-11-02T12:40:42.171Z,99020.70
2018-11-02T12:43:11.207Z,99032.06
2018-11-02T12:45:40.121Z,99024.70
2018-11-02T12:48:08.975Z,99018.94
2018-11-02T12:50:38.070Z,99018.00
2018-11-02T12:53:07.146Z,99015.56
2018-11-02T12:55:36.064Z,99021.32
2018-11-02T12:58:05.472Z,99014.03
2018-11-02T13:00:34.600Z,99008.48
2018-11-02T13:03:03.642Z,99010.71
2018-11-02T13:05:32.498Z,99005.16
2018-11-02T13:08:01.488Z,99012.77
2018-11-02T13:10:30.794Z,99009.53
2018-11-02T13:13:00.022Z,99017.25
2018-11-02T13:15:29.155Z,99011.59
2018-11-02T13:17:58.300Z,99011.00
2018-11-02T13:20:27.124Z,99002.17
2018-11-02T13:22:56.417Z,99006.05
2018-11-02T13:25:25.637Z,99000.39
2018-11-02T13:27:54.818Z,98992.08
2018-11-02T13:30:24.100Z,98991.70
2018-11-02T13:32:53.201Z,98995.73
2018-11-02T13:35:22.128Z,98993.33
2018-11-02T13:37:51.466Z,98996.06
2018-11-02T13:40:20.745Z,98990.74
2018-11-02T13:42:49.961Z,98996.10
2018-11-02T13:45:19.495Z,98995.35
2018-11-02T13:47:48.753Z,98994.58
2018-11-02T13:50:17.973Z,98997.42
2018-11-02T13:52:47.103Z,98999.91
2018-11-02T13:55:16.235Z,99000.72
2018-11-02T13:57:45.957Z,98996.19
2018-11-02T14:00:17.159Z,98993.73
2018-11-02T14:02:46.482Z,98994.34
2018-11-02T14:05:16.506Z,99000.38
2018-11-02T14:07:45.801Z,98997.05
2018-11-02T14:10:15.130Z,98996.98
2018-11-02T14:12:44.310Z,99002.58
2018-11-02T14:15:14.778Z,99005.31
2018-11-02T14:17:43.815Z,99010.30
2018-11-02T14:20:13.547Z,99009.72
2018-11-02T14:22:42.714Z,99011.41
2018-11-02T14:25:13.362Z,99013.47
2018-11-02T14:27:42.389Z,99015.83
2018-11-02T14:30:13.410Z,99010.81
2018-11-02T14:32:42.692Z,99013.56
2018-11-02T14:35:12.170Z,99017.16
2018-11-02T14:37:41.352Z,99016.00
2018-11-02T14:40:11.171Z,99021.91
2018-11-02T14:42:41.061Z,99023.41
2018-11-02T14:45:11.862Z,99025.41
2018-11-02T14:47:41.133Z,99022.85
2018-11-02T14:50:10.823Z,99020.42
2018-11-02T14:52:39.907Z,99021.66
2018-11-02T14:55:09.351Z,99023.20
2018-11-02T14:57:38.762Z,99029.95
2018-11-02T15:00:09.230Z,99029.25
2018-11-02T15:02:38.534Z,99030.05
2018-11-02T15:05:08.650Z,99026.78
2018-11-02T15:07:37.887Z,99031.11
2018-11-02T15:10:06.994Z,99031.74
2018-11-02T15:12:36.410Z,99029.16
2018-11-02T15:15:05.682Z,99038.24
2018-11-02T15:17:35.046Z,99033.41
2018-11-02T15:20:04.190Z,99035.94
2018-11-02T15:22:33.298Z,99039.34
2018-11-02T15:25:02.619Z,99032.33
2018-11-02T15:27:31.470Z,99033.87
2018-11-02T15:30:00.666Z,99032.06
2018-11-02T15:32:29.498Z,99035.43
2018-11-02T15:34:58.375Z,99038.70
2018-11-02T15:37:27.290Z,99046.89
2018-11-02T15:39:57.166Z,99041.69
2018-11-02T15:42:26.155Z,99050.50
2018-11-02T15:44:55.390Z,99048.09
2018-11-02T15:47:25.453Z,99051.13
2018-11-02T15:49:54.648Z,99052.34
2018-11-02T15:52:23.481Z,99051.64
2018-11-02T15:54:52.774Z,99049.02
2018-11-02T15:57:21.577Z,99055.13
2018-11-02T15:59:50.622Z,99049.84
2018-11-02T16:02:19.974Z,99058.63
2018-11-02T16:04:49.323Z,99059.44
2018-11-02T16:07:18.541Z,99068.91
2018-11-02T16:09:47.599Z,99062.16
2018-11-02T16:12:16.702Z,99071.33
2018-11-02T16:14:45.591Z,99074.34
2018-11-02T16:17:14.799Z,99076.07
2018-11-02T16:19:43.994Z,99078.49
2018-11-02T16:22:13.301Z,99078.42
2018-11-02T16:24:42.286Z,99081.28
2018-11-02T16:27:11.454Z,99076.64
2018-11-02T16:29:40.438Z,99078.11
2018-11-02T16:32:09.659Z,99084.42
2018-11-02T16:34:38.467Z,99091.96
2018-11-02T16:37:07.658Z,99085.55
2018-11-02T16:39:36.436Z,99094.41
2018-11-02T16:42:05.810Z,99101.16
2018-11-02T16:44:35.159Z,99107.45
2018-11-02T16:47:04.465Z,99107.22
2018-11-02T16:49:33.858Z,99109.70
2018-11-02T16:52:03.259Z,99115.21
2018-11-02T16:54:32.840Z,99116.71
2018-11-02T16:57:02.050Z,99121.64
2018-11-02T16:59:31.046Z,99120.90
2018-11-02T17:02:00.278Z,99113.43
2018-11-02T17:04:29.482Z,99113.03
2018-11-02T17:06:58.626Z,99114.80
2018-11-02T17:09:27.804Z,99112.16
2018-11-02T17:11:57.025Z,99112.55
2018-11-02T17:14:26.477Z,99119.67
2018-11-02T17:16:55.411Z,99121.61
2018-11-02T17:19:24.711Z,99127.91
2018-11-02T17:21:53.926Z,99130.85
2018-11-02T17:24:22.807Z,99125.88
2018-11-02T17:26:52.105Z,99128.32
2018-11-02T17:29:20.894Z,99127.69
2018-11-02T17:31:50.063Z,99130.96
2018-11-02T17:34:19.038Z,99130.61
2018-11-02T17:36:48.070Z,99129.97
2018-11-02T17:39:16.926Z,99122.77
2018-11-02T17:41:46.211Z,99123.41
2018-11-02T17:44:15.358Z,99119.13
2018-11-02T17:46:44.420Z,99124.95
2018-11-02T17:49:13.624Z,99126.41
2018-11-02T17:51:42.742Z,99126.85
2018-11-02T17:54:12.749Z,99122.98
2018-11-02T17:56:42.048Z,99119.50
2018-11-02T17:59:11.341Z,99119.06
2018-11-02T18:01:40.590Z,99121.80
2018-11-02T18:04:09.428Z,99118.84
2018-11-02T18:06:39.195Z,99114.09
2018-11-02T18:09:10.450Z,99118.11
2018-11-02T18:11:39.684Z,99116.42
2018-11-02T18:14:09.251Z,99111.73
2018-11-02T18:16:38.025Z,99110.13
2018-11-02T18:19:06.874Z,99112.39
2018-11-02T18:21:36.651Z,99115.05
2018-11-02T18:24:05.706Z,99118.59
2018-11-02T18:26:34.880Z,99119.06
2018-11-02T18:29:03.693Z,99114.34
2018-11-02T18:31:32.455Z,99120.14
2018-11-02T18:34:01.559Z,99125.46
2018-11-02T18:36:30.336Z,99125.09
2018-11-02T18:38:59.172Z,99121.23
2018-11-02T18:41:28.314Z,99129.63
2018-11-02T18:43:57.559Z,99127.91
2018-11-02T18:46:26.837Z,99134.10
2018-11-02T18:48:55.996Z,99129.31
2018-11-02T18:51:25.289Z,99134.51
2018-11-02T18:53:54.656Z,99136.29
2018-11-02T18:56:24.069Z,99138.05
2018-11-02T18:58:52.847Z,99129.66
2018-11-02T19:01:21.823Z,99131.72
2018-11-02T19:03:51.118Z,99140.95
2018-11-02T19:06:21.148Z,99142.64
2018-11-02T19:08:51.493Z,99146.09
2018-11-02T19:11:21.398Z,99153.48
2018-11-02T19:13:50.594Z,99152.91
2018-11-02T19:16:20.494Z,99157.54
2018-11-02T19:18:49.459Z,99155.66
2018-11-02T19:21:18.781Z,99159.33
2018-11-02T19:23:47.995Z,99158.72
2018-11-02T19:26:17.003Z,99154.23
2018-11-02T19:28:46.131Z,99160.23
2018-11-02T19:31:15.438Z,99161.41
2018-11-02T19:33:44.881Z,99152.80
2018-11-02T19:36:14.205Z,99158.36
2018-11-02T19:38:43.447Z,99150.71
2018-11-02T19:41:12.475Z,99154.39
2018-11-02T19:43:41.530Z,99158.62
2018-11-02T19:46:10.825Z,99151.88
2018-11-02T19:48:40.142Z,99158.23
2018-11-02T19:51:09.217Z,99161.22
2018-11-02T19:53:38.647Z,99162.41
2018-11-02T19:56:07.706Z,99161.85
2018-11-02T19:58:37.054Z,99169.72
2018-11-02T20:01:06.280Z,99167.84
2018-11-02T20:03:35.329Z,99173.81
2018-11-02T20:06:04.522Z,99167.46
2018-11-02T20:08:33.634Z,99171.50
2018-11-02T20:11:02.630Z,99173.38
2018-11-02T20:13:31.757Z,99168.95
2018-11-02T20:16:00.818Z,99179.41
2018-11-02T20:18:29.718Z,99173.26
2018-11-02T20:20:58.642Z,99177.95
2018-11-02T20:23:27.949Z,99175.09
2018-11-02T20:25:57.347Z,99183.77
2018-11-02T20:28:26.667Z,99187.62
2018-11-02T20:33:29.713Z,99189.91
2018-11-02T20:35:58.801Z,99192.64
2018-11-02T20:38:28.038Z,99198.00
2018-11-02T20:40:57.234Z,99195.89
2018-11-02T20:43:26.098Z,99202.48
2018-11-02T20:45:55.074Z,99205.08
2018-11-02T20:48:24.226Z,99202.92
2018-11-02T20:50:53.408Z,99201.69
2018-11-02T20:53:22.619Z,99204.77
2018-11-02T20:55:51.812Z,99198.92
2018-11-02T20:58:20.590Z,99200.51
2018-11-02T21:00:49.537Z,99196.73
2018-11-02T21:03:18.395Z,99207.55
2018-11-02T21:05:47.306Z,99203.28
2018-11-02T21:08:16.439Z,99199.66
2018-11-02T21:10:45.475Z,99202.13
2018-11-02T21:13:14.558Z,99201.20
2018-11-02T21:15:43.682Z,99201.73
2018-11-02T21:18:12.637Z,99203.41
2018-11-02T21:20:41.862Z,99200.33
2018-11-02T21:23:10.939Z,99193.69
2018-11-02T21:25:40.154Z,99196.28
2018-11-02T21:28:09.433Z,99190.92
2018-11-02T21:30:38.607Z,99196.45
2018-11-02T21:33:07.334Z,99202.65
2018-11-02T21:35:36.547Z,99199.92
2018-11-02T21:38:05.695Z,99202.38
2018-11-02T21:40:34.654Z,99199.30
2018-11-02T21:43:03.776Z,99192.51
2018-11-02T21:45:32.974Z,99197.27
2018-11-02T21:48:01.702Z,99192.39
2018-11-02T21:50:30.845Z,99191.74
2018-11-02T21:52:59.870Z,99200.09
2018-11-02T21:55:29.062Z,99198.98
2018-11-02T21:57:58.372Z,99197.12
2018-11-02T22:00:27.522Z,99202.59
2018-11-02T22:02:56.753Z,99201.04
2018-11-02T22:05:26.059Z,99202.89
2018-11-02T22:07:55.235Z,99203.85
2018-11-02T22:10:24.422Z,99205.27
2018-11-02T22:12:53.426Z,99200.25
2018-11-02T22:15:22.722Z,99200.83
2018-11-02T22:17:51.923Z,99204.11
2018-11-02T22:20:20.950Z,99201.55
2018-11-02T22:22:50.158Z,99202.39
2018-11-02T22:25:19.314Z,99203.14
2018-11-02T22:27:48.502Z,99201.23
2018-11-02T22:30:18.218Z,99206.20
2018-11-02T22:32:47.529Z,99202.30
2018-11-02T22:35:17.039Z,99199.98
2018-11-02T22:37:46.422Z,99200.64
2018-11-02T22:40:15.654Z,99205.66
2018-11-02T22:42:45.122Z,99200.33
2018-11-02T22:45:14.993Z,99203.02
2018-11-02T22:47:48.183Z,99192.98
2018-11-02T22:50:17.318Z,99195.00
2018-11-02T22:52:46.570Z,99195.70
2018-11-02T22:55:15.518Z,99194.81
2018-11-02T22:57:44.527Z,99190.91
2018-11-02T23:00:16.190Z,99186.95
2018-11-02T23:02:46.099Z,99186.40
2018-11-02T23:05:15.206Z,99189.85
2018-11-02T23:07:44.782Z,99180.27
2018-11-02T23:10:14.076Z,99174.27
2018-11-02T23:12:43.162Z,99176.23
2018-11-02T23:15:12.878Z,99173.36
2018-11-02T23:17:42.233Z,99171.83
2018-11-02T23:20:13.113Z,99174.16
2018-11-02T23:22:42.426Z,99170.89
2018-11-02T23:25:12.073Z,99172.16
2018-11-02T23:27:42.244Z,99172.03
2018-11-02T23:30:11.764Z,99176.81
2018-11-02T23:32:40.746Z,99177.65
2018-11-02T23:35:11.042Z,99179.06
2018-11-02T23:37:40.190Z,99179.06
2018-11-02T23:40:10.773Z,99186.05
2018-11-02T23:42:39.884Z,99190.84
2018-11-02T23:45:09.734Z,99186.95
2018-11-02T23:47:39.039Z,99184.24
2018-11-02T23:50:09.922Z,99186.70
2018-11-02T23:52:38.937Z,99178.52
2018-11-02T23:55:08.029Z,99180.91
2018-11-02T23:57:37.158Z,99183.63
